Time;durP1;ratioP1;P1;durP2;ratioP2;P2;SDS_P1;SDS_P2;PMS_P1;PMS_P2;Temp;Humidity;BMP_temperature;BMP_pressure;BME280_temperature;BME280_humidity;BME280_pressure;Samples;Min_cycle;Max_cycle;Signal;HPM_P1;HPM_P2
2023/11/18 00:00:28;;;;;;;7.05;2.95;;;;;;;-5.58;59.14;100677.38;5053503;28;20376;-63
2023/11/18 00:02:53;;;;;;;12.77;3.55;;;;;;;-5.59;59.26;100699.13;5053602;28;20031;-64
2023/11/18 00:05:19;;;;;;;9.48;3.90;;;;;;;-5.59;59.24;100675.66;5053140;28;20032;-64
2023/11/18 00:07:44;;;;;;;9.50;3.90;;;;;;;-5.49;59.01;100690.44;5053366;28;20116;-64
2023/11/18 00:10:10;;;;;;;9.82;3.58;;;;;;;-5.54;58.92;100693.03;5040730;28;20040;-63
2023/11/18 00:12:37;;;;;;;9.40;3.63;;;;;;;-5.57;59.26;100693.06;5034217;28;20080;-63
2023/11/18 00:15:04;;;;;;;9.30;3.70;;;;;;;-5.63;59.52;100682.63;5041312;28;20025;-65
2023/11/18 00:17:31;;;;;;;9.48;3.45;;;;;;;-5.58;59.41;100704.34;5051493;28;20103;-64
2023/11/18 00:19:57;;;;;;;8.32;3.58;;;;;;;-5.63;59.92;100688.69;5042915;28;20156;-64
2023/11/18 00:22:23;;;;;;;7.82;3.72;;;;;;;-5.40;59.64;100703.47;5033434;28;20464;-63
2023/11/18 00:24:49;;;;;;;8.40;3.47;;;;;;;-5.38;58.74;100688.69;5033219;28;20057;-65
2023/11/18 00:27:15;;;;;;;9.48;3.63;;;;;;;-5.33;58.79;100694.75;5033221;28;20521;-65
2023/11/18 00:29:42;;;;;;;10.45;3.80;;;;;;;-5.43;59.24;100692.16;5033294;28;20029;-65
2023/11/18 00:32:09;;;;;;;10.90;3.85;;;;;;;-5.40;59.07;100706.09;5032174;28;20460;-65
2023/11/18 00:34:35;;;;;;;9.98;4.22;;;;;;;-5.44;59.30;100706.06;5033903;28;20025;-65
2023/11/18 00:37:00;;;;;;;6.32;3.38;;;;;;;-5.34;59.58;100715.66;5032278;28;20445;-64
2023/11/18 00:39:26;;;;;;;8.55;3.53;;;;;;;-5.38;59.55;100711.31;5033292;28;20067;-63
2023/11/18 00:41:53;;;;;;;9.07;4.13;;;;;;;-5.29;59.57;100707.84;5032782;28;20052;-65
2023/11/18 00:44:18;;;;;;;9.32;3.53;;;;;;;-5.42;59.92;100705.22;5033851;28;20029;-65
2023/11/18 00:46:44;;;;;;;8.82;3.20;;;;;;;-5.38;59.36;100712.16;5032772;28;20029;-65
2023/11/18 00:49:11;;;;;;;9.88;3.92;;;;;;;-5.39;59.87;100713.03;5032674;28;20033;-64
2023/11/18 00:51:37;;;;;;;10.70;3.63;;;;;;;-5.46;60.08;100713.94;5032777;28;20030;-65
2023/11/18 00:54:05;;;;;;;7.22;3.58;;;;;;;-5.50;60.34;100709.59;5032669;28;20026;-62
2023/11/18 00:56:31;;;;;;;9.05;3.95;;;;;;;-5.54;60.43;100723.50;5033446;28;20041;-64
2023/11/18 00:58:57;;;;;;;10.05;3.67;;;;;;;-5.54;60.32;100728.72;5033161;28;20029;-63
2023/11/18 01:01:23;;;;;;;8.82;3.97;;;;;;;-5.48;60.66;100723.50;5032727;28;20045;-63
2023/11/18 01:03:49;;;;;;;9.05;4.13;;;;;;;-5.56;60.88;100712.16;5032743;28;20534;-63
2023/11/18 01:06:15;;;;;;;6.65;3.30;;;;;;;-5.56;61.04;100725.22;5032935;28;20085;-64
2023/11/18 01:08:44;;;;;;;8.70;3.92;;;;;;;-5.60;61.27;100721.75;5033541;28;20352;-64
2023/11/18 01:11:10;;;;;;;11.95;4.15;;;;;;;-5.59;61.15;100717.38;5031668;28;20030;-62
2023/11/18 01:13:35;;;;;;;10.70;4.03;;;;;;;-5.60;61.25;100723.47;5033244;28;20305;-64
2023/11/18 01:16:01;;;;;;;11.40;4.35;;;;;;;-5.72;61.27;100714.78;5033448;28;20037;-63
2023/11/18 01:18:28;;;;;;;12.40;4.47;;;;;;;-5.62;61.36;100726.97;5032283;28;20120;-63
2023/11/18 01:20:53;;;;;;;16.55;4.70;;;;;;;-5.67;61.37;100730.44;5031885;28;20417;-63
2023/11/18 01:23:19;;;;;;;11.30;4.10;;;;;;;-5.69;62.21;100730.44;5031455;28;20467;-63
2023/11/18 01:25:45;;;;;;;7.88;4.30;;;;;;;-5.72;62.00;100733.06;5031948;28;20107;-62
2023/11/18 01:28:11;;;;;;;10.18;4.63;;;;;;;-5.80;61.92;100722.59;5032397;28;20045;-63
2023/11/18 01:30:36;;;;;;;12.50;4.25;;;;;;;-5.82;62.47;100723.47;5033616;28;20033;-63
2023/11/18 01:33:03;;;;;;;10.52;4.97;;;;;;;-5.81;62.51;100720.88;5015348;28;20044;-63
2023/11/18 01:35:31;;;;;;;10.88;5.55;;;;;;;-5.77;62.86;100742.63;5033846;28;20460;-63
2023/11/18 01:37:57;;;;;;;13.63;5.25;;;;;;;-5.78;62.49;100738.28;5032692;28;20116;-62
2023/11/18 01:40:23;;;;;;;13.02;5.78;;;;;;;-5.80;62.96;100742.59;5032705;28;20124;-63
2023/11/18 01:42:49;;;;;;;9.70;5.75;;;;;;;-5.81;62.75;100743.47;5032527;28;20025;-62
2023/11/18 01:45:16;;;;;;;11.45;5.40;;;;;;;-5.87;63.18;100733.91;5032328;28;20359;-64
2023/11/18 01:47:43;;;;;;;12.77;5.60;;;;;;;-5.85;62.74;100749.53;5033050;28;20033;-64
2023/11/18 01:50:12;;;;;;;10.90;5.53;;;;;;;-5.85;63.26;100744.31;5045167;28;20047;-64
2023/11/18 01:52:39;;;;;;;12.60;5.68;;;;;;;-5.87;62.91;100746.06;5052740;28;20052;-64
2023/11/18 01:55:08;;;;;;;12.95;5.10;;;;;;;-5.92;62.99;100739.09;5053144;28;20424;-63
2023/11/18 01:57:34;;;;;;;10.05;5.03;;;;;;;-6.00;63.48;100729.53;5053453;28;20041;-63
2023/11/18 02:00:05;;;;;;;11.35;5.45;;;;;;;-5.96;63.76;100732.16;5053911;28;20032;-61
2023/11/18 02:02:32;;;;;;;12.48;5.63;;;;;;;-5.80;63.25;100747.81;5055317;28;20090;-63
2023/11/18 02:05:01;;;;;;;14.63;5.80;;;;;;;-5.85;63.27;100744.31;5045252;28;20446;-64
2023/11/18 02:07:28;;;;;;;14.48;5.78;;;;;;;-5.92;63.45;100736.50;5035657;28;20041;-63
2023/11/18 02:09:55;;;;;;;12.45;4.82;;;;;;;-5.97;63.15;100738.22;5017392;28;20055;-62
2023/11/18 02:12:34;;;;;;;11.93;4.53;;;;;;;-5.98;63.86;100746.03;5034587;28;20421;-62
2023/11/18 02:15:09;;;;;;;10.90;4.70;;;;;;;-6.03;63.70;100740.84;5035383;28;20116;-62
2023/11/18 02:17:38;;;;;;;12.70;4.78;;;;;;;-6.02;63.80;100742.59;5037400;28;20056;-63
2023/11/18 02:20:13;;;;;;;10.00;4.55;;;;;;;-6.05;64.10;100737.34;5055369;28;20040;-63
2023/11/18 02:22:48;;;;;;;10.35;4.50;;;;;;;-6.30;64.36;100694.72;5053003;28;20059;-62
2023/11/18 02:25:18;;;;;;;8.90;4.20;;;;;;;-6.06;64.47;100725.19;5053430;28;20144;-63
2023/11/18 02:27:45;;;;;;;17.08;5.22;;;;;;;-5.92;63.76;100735.59;5053694;28;20071;-63
2023/11/18 02:30:16;;;;;;;9.68;4.60;;;;;;;-5.97;64.14;100742.56;5049496;28;20100;-61
2023/11/18 02:32:51;;;;;;;9.20;4.55;;;;;;;-6.00;64.21;100735.63;5054313;28;20055;-63
2023/11/18 02:35:22;;;;;;;11.68;4.22;;;;;;;-5.98;64.14;100736.50;5054648;28;20037;-64
2023/11/18 02:37:51;;;;;;;9.25;4.90;;;;;;;-5.98;64.65;100744.31;5052574;28;20040;-63
2023/11/18 02:40:24;;;;;;;11.68;4.93;;;;;;;-6.13;64.63;100720.84;5054331;28;20353;-64
2023/11/18 02:42:52;;;;;;;10.80;3.92;;;;;;;-6.06;64.49;100733.00;5054439;28;20025;-64
2023/11/18 02:45:20;;;;;;;14.00;4.47;;;;;;;-6.00;64.73;100738.22;5054067;28;20064;-62
2023/11/18 02:47:47;;;;;;;13.98;4.78;;;;;;;-6.01;64.46;100741.75;5053259;28;20041;-63
2023/11/18 02:50:15;;;;;;;9.20;4.65;;;;;;;-5.92;64.25;100749.53;5053928;28;20040;-63
2023/11/18 02:52:41;;;;;;;9.57;4.78;;;;;;;-5.88;64.09;100740.00;5054367;28;20328;-64
2023/11/18 02:55:08;;;;;;;10.98;4.78;;;;;;;-5.97;64.44;100742.56;5054076;28;20031;-63
2023/11/18 02:57:38;;;;;;;17.67;5.05;;;;;;;-5.96;64.46;100746.91;5053088;28;20463;-63
2023/11/18 03:00:05;;;;;;;10.80;4.47;;;;;;;-6.12;65.03;100725.19;5054188;28;20044;-64
2023/11/18 03:02:31;;;;;;;9.30;4.63;;;;;;;-6.14;64.79;100735.63;5054568;28;20518;-62
2023/11/18 03:04:58;;;;;;;8.15;4.97;;;;;;;-6.07;64.76;100749.53;5053542;28;20116;-64
2023/11/18 03:07:23;;;;;;;10.65;4.47;;;;;;;-5.96;64.29;100744.28;5038534;28;20105;-65
2023/11/18 03:09:49;;;;;;;13.45;5.30;;;;;;;-5.80;63.93;100753.91;5034438;28;20034;-62
2023/11/18 03:12:16;;;;;;;10.73;5.32;;;;;;;-5.96;63.99;100741.69;5035305;28;20036;-63
2023/11/18 03:14:42;;;;;;;11.60;5.20;;;;;;;-6.01;64.25;100752.16;5053084;28;20040;-64
2023/11/18 03:17:09;;;;;;;12.60;5.05;;;;;;;-5.94;64.05;100746.06;5052922;28;20055;-63
2023/11/18 03:19:35;;;;;;;12.00;4.72;;;;;;;-5.83;63.48;100758.22;5035270;28;20519;-64
2023/11/18 03:22:02;;;;;;;9.63;4.78;;;;;;;-5.75;63.43;100751.31;5033334;28;20028;-64
2023/11/18 03:24:28;;;;;;;9.95;3.83;;;;;;;-5.68;62.77;100760.00;5033974;28;20040;-63
2023/11/18 03:26:55;;;;;;;7.43;4.10;;;;;;;-5.71;63.08;100766.09;5035154;28;20497;-63
2023/11/18 03:29:20;;;;;;;13.07;5.18;;;;;;;-5.84;63.41;100766.94;5035158;28;20411;-62
2023/11/18 03:31:48;;;;;;;12.57;5.75;;;;;;;-5.85;63.41;100766.06;5034911;28;20040;-63
2023/11/18 03:34:15;;;;;;;9.65;4.45;;;;;;;-5.83;63.73;100761.72;5034169;28;20092;-63
2023/11/18 03:36:41;;;;;;;11.00;4.38;;;;;;;-5.94;64.32;100758.22;5033789;28;20463;-63
2023/11/18 03:39:06;;;;;;;11.45;4.45;;;;;;;-6.01;64.32;100751.28;5050188;28;20033;-64
2023/11/18 03:41:32;;;;;;;12.02;4.65;;;;;;;-5.99;64.08;100744.28;5053452;28;20051;-64
2023/11/18 03:43:58;;;;;;;12.93;4.60;;;;;;;-6.06;64.27;100735.63;5052946;28;20406;-64
2023/11/18 03:46:23;;;;;;;11.75;4.20;;;;;;;-6.12;64.63;100746.03;5046048;28;20498;-63
2023/11/18 03:48:49;;;;;;;9.15;4.38;;;;;;;-6.19;64.79;100742.53;5034834;28;20033;-63
2023/11/18 03:51:17;;;;;;;8.70;3.70;;;;;;;-6.25;65.25;100756.44;5033981;28;20065;-63
2023/11/18 03:53:43;;;;;;;10.13;4.55;;;;;;;-6.33;65.68;100752.06;5033329;28;20033;-63
2023/11/18 03:56:09;;;;;;;9.52;4.10;;;;;;;-6.32;65.83;100759.00;5051373;28;20028;-65
2023/11/18 03:58:35;;;;;;;12.23;4.68;;;;;;;-6.68;65.93;100706.75;5051443;28;20081;-63
2023/11/18 04:01:01;;;;;;;8.95;4.60;;;;;;;-6.38;66.41;100763.34;5052559;28;20036;-62
2023/11/18 04:03:27;;;;;;;11.10;4.88;;;;;;;-6.40;66.52;100761.59;5053434;28;20101;-63
2023/11/18 04:05:52;;;;;;;13.38;6.07;;;;;;;-6.41;66.24;100767.66;5039787;28;20116;-62
2023/11/18 04:08:18;;;;;;;17.33;5.88;;;;;;;-6.67;66.89;100718.91;5032581;28;20025;-63
2023/11/18 04:10:44;;;;;;;12.30;5.55;;;;;;;-6.49;66.54;100757.19;5033460;28;20037;-64
2023/11/18 04:13:09;;;;;;;11.52;5.20;;;;;;;-6.48;66.88;100758.94;5039370;28;20033;-63
2023/11/18 04:15:35;;;;;;;11.02;4.55;;;;;;;-6.56;66.95;100751.06;5033055;28;20156;-65
2023/11/18 04:18:01;;;;;;;11.70;4.88;;;;;;;-6.49;67.21;100773.72;5045816;28;20063;-64
2023/11/18 04:20:27;;;;;;;9.38;4.72;;;;;;;-6.51;66.89;100759.81;5053126;28;20025;-64
2023/11/18 04:22:53;;;;;;;10.18;4.93;;;;;;;-6.53;67.19;100774.53;5053048;28;20036;-63
2023/11/18 04:25:18;;;;;;;13.90;5.00;;;;;;;-6.72;67.20;100749.28;5053005;28;20061;-64
2023/11/18 04:27:45;;;;;;;11.50;4.85;;;;;;;-6.58;67.28;100770.19;5052929;28;20464;-63
2023/11/18 04:30:12;;;;;;;13.55;4.63;;;;;;;-6.57;67.45;100782.34;5052870;28;20029;-63
2023/11/18 04:32:38;;;;;;;11.70;4.88;;;;;;;-6.59;67.17;100776.25;5051340;28;20052;-64
2023/11/18 04:35:09;;;;;;;11.30;4.88;;;;;;;-6.86;67.68;100726.63;5051880;28;20037;-62
2023/11/18 04:37:35;;;;;;;9.93;5.32;;;;;;;-6.93;67.44;100715.28;5052581;28;20047;-64
2023/11/18 04:40:02;;;;;;;13.70;5.32;;;;;;;-6.63;67.74;100770.16;5050230;28;20447;-65
2023/11/18 04:42:30;;;;;;;15.55;5.78;;;;;;;-6.65;67.91;100767.53;5052651;28;20036;-63
2023/11/18 04:44:57;;;;;;;11.93;5.53;;;;;;;-6.58;67.87;100776.25;5052687;28;20025;-63
2023/11/18 04:47:24;;;;;;;11.80;5.35;;;;;;;-6.58;67.93;100772.78;5052857;28;20116;-64
2023/11/18 04:49:51;;;;;;;13.32;5.93;;;;;;;-6.61;67.76;100765.81;5051583;28;20040;-62
2023/11/18 04:52:17;;;;;;;14.55;4.72;;;;;;;-6.63;67.81;100762.34;5051732;28;20363;-62
2023/11/18 04:54:43;;;;;;;13.20;5.63;;;;;;;-6.59;68.06;100771.91;5051109;28;20025;-63
2023/11/18 04:57:09;;;;;;;13.20;5.18;;;;;;;-6.65;67.99;100759.72;5052781;28;20033;-63
2023/11/18 04:59:35;;;;;;;10.57;4.82;;;;;;;-6.57;68.16;100772.78;5049946;28;20111;-63
2023/11/18 05:02:02;;;;;;;13.05;5.28;;;;;;;-6.89;67.94;100721.41;5052610;28;20037;-68
2023/11/18 05:04:28;;;;;;;17.73;5.82;;;;;;;-6.76;68.03;100727.53;5052406;28;20025;-68
2023/11/18 05:06:54;;;;;;;18.25;6.47;;;;;;;-6.55;67.94;100752.81;5052663;28;20025;-66
2023/11/18 05:09:20;;;;;;;15.35;5.63;;;;;;;-6.57;67.70;100733.72;5052498;28;20442;-65
2023/11/18 05:11:46;;;;;;;10.68;4.68;;;;;;;-6.30;67.24;100763.34;5052282;28;20029;-67
2023/11/18 05:14:11;;;;;;;14.88;6.10;;;;;;;-6.15;66.84;100769.50;5051573;28;20436;-67
2023/11/18 05:16:37;;;;;;;13.43;5.95;;;;;;;-6.23;66.97;100775.56;5052771;28;20029;-67
2023/11/18 05:19:03;;;;;;;19.15;6.00;;;;;;;-6.30;66.62;100752.91;5049455;28;20083;-67
2023/11/18 05:21:29;;;;;;;16.23;6.53;;;;;;;-6.12;67.09;100785.13;5032486;28;20372;-66
2023/11/18 05:23:54;;;;;;;11.88;5.88;;;;;;;-6.00;66.49;100777.34;5036734;28;20085;-66
2023/11/18 05:26:20;;;;;;;13.88;6.15;;;;;;;-5.91;66.03;100772.13;5035047;28;20077;-65
2023/11/18 05:28:46;;;;;;;12.73;6.22;;;;;;;-5.84;66.02;100782.56;5036531;28;20099;-63
2023/11/18 05:31:12;;;;;;;14.35;5.85;;;;;;;-5.84;66.28;100779.97;5036422;28;20037;-66
2023/11/18 05:33:37;;;;;;;11.45;5.25;;;;;;;-5.80;66.34;100784.31;5036112;28;20133;-65
2023/11/18 05:36:05;;;;;;;11.07;5.45;;;;;;;-5.68;66.16;100783.47;5036293;28;20436;-66
2023/11/18 05:38:34;;;;;;;11.18;5.22;;;;;;;-5.44;65.96;100773.94;5037297;28;20550;-63
2023/11/18 05:41:03;;;;;;;13.02;5.82;;;;;;;-5.08;64.87;100782.66;5053498;28;20037;-65
2023/11/18 05:43:38;;;;;;;10.18;5.30;;;;;;;-4.89;63.91;100775.66;5056094;28;20064;-68
2023/11/18 05:46:24;;;;;;;;;;;;;;;-4.52;64.66;100775.59;5056482;28;20025;-66
2023/11/18 05:48:50;;;;;;;10.75;4.35;;;;;;;-4.33;63.49;100783.38;5054109;28;19908;-65
2023/11/18 05:51:20;;;;;;;9.73;4.18;;;;;;;-3.83;62.76;100785.75;5055855;28;20051;-66
2023/11/18 05:53:46;;;;;;;12.82;4.60;;;;;;;-3.05;61.82;100780.81;5052969;28;20087;-67
2023/11/18 05:56:13;;;;;;;14.05;4.88;;;;;;;-2.00;58.84;100773.53;5037391;28;20044;-69
2023/11/18 05:58:39;;;;;;;15.10;5.10;;;;;;;-0.75;55.15;100785.63;5055488;28;20098;-66
2023/11/18 06:01:08;;;;;;;14.45;5.07;;;;;;;0.03;52.76;100777.06;5055807;28;20037;-67
2023/11/18 06:03:38;;;;;;;8.65;4.60;;;;;;;0.67;50.82;100786.19;5055738;28;20170;-64
2023/11/18 06:06:09;;;;;;;12.20;5.03;;;;;;;1.07;49.66;100750.03;5055687;28;20448;-63
2023/11/18 06:08:42;;;;;;;12.45;4.93;;;;;;;3.05;46.68;100771.44;5055657;28;20447;-65
2023/11/18 06:11:15;;;;;;;20.50;6.72;;;;;;;5.41;41.57;100787.09;5055672;28;20029;-63
2023/11/18 06:13:48;;;;;;;10.90;5.53;;;;;;;5.88;39.04;100745.16;5040056;28;20057;-64
2023/11/18 06:16:14;;;;;;;19.55;6.00;;;;;;;6.39;38.43;100785.38;5035985;28;20033;-63
2023/11/18 06:18:44;;;;;;;13.43;5.25;;;;;;;7.37;37.16;100783.25;5035141;28;20155;-66
2023/11/18 06:21:14;;;;;;;15.57;5.05;;;;;;;8.98;34.28;100778.06;5034307;28;20365;-65
2023/11/18 06:23:41;;;;;;;14.75;5.45;;;;;;;10.45;31.36;100777.09;5033711;28;20026;-65
2023/11/18 06:26:10;;;;;;;13.10;5.22;;;;;;;11.63;29.91;100779.97;5034701;28;20042;-66
2023/11/18 06:28:43;;;;;;;14.20;6.10;;;;;;;12.73;28.33;100776.63;5034929;28;20041;-65
2023/11/18 06:31:11;;;;;;;11.75;5.75;;;;;;;13.59;26.58;100779.16;5043338;28;20048;-66
2023/11/18 06:33:44;;;;;;;17.25;6.40;;;;;;;14.38;26.94;100773.88;5036420;28;20098;-65
2023/11/18 06:36:17;;;;;;;12.10;6.22;;;;;;;15.02;25.83;100783.00;5051378;28;20098;-65
2023/11/18 06:38:44;;;;;;;16.15;6.28;;;;;;;15.25;23.94;100778.38;5054346;28;20029;-64
2023/11/18 06:41:11;;;;;;;15.57;6.28;;;;;;;15.46;23.13;100772.13;5053385;28;20145;-64
2023/11/18 06:46:25;;;;;;;18.75;5.93;;;;;;;16.24;22.85;100776.19;5035004;28;20040;-66
2023/11/18 06:48:54;;;;;;;13.88;6.10;;;;;;;16.34;21.62;100771.66;5034606;28;20037;-67
2023/11/18 06:51:24;;;;;;;15.95;6.40;;;;;;;16.16;22.00;100761.53;5045873;28;20119;-70
2023/11/18 06:53:55;;;;;;;18.15;6.18;;;;;;;16.09;22.17;100783.84;5049539;28;20033;-64
2023/11/18 06:56:21;;;;;;;15.70;6.00;;;;;;;15.85;21.65;100787.69;5050140;28;20041;-67
2023/11/18 06:58:47;;;;;;;13.57;6.82;;;;;;;14.84;22.31;100793.50;5053901;28;20052;-64
2023/11/18 07:01:14;;;;;;;19.08;6.93;;;;;;;13.82;23.51;100797.16;5037978;28;20048;-64
2023/11/18 07:03:41;;;;;;;12.13;7.28;;;;;;;12.52;24.39;100789.84;5034455;28;20044;-65
2023/11/18 07:06:09;;;;;;;14.70;6.75;;;;;;;10.34;27.03;100796.50;5034452;28;20384;-65
2023/11/18 07:08:39;;;;;;;15.13;6.72;;;;;;;8.87;28.48;100754.66;5034349;28;20483;-65
2023/11/18 07:11:05;;;;;;;13.25;6.53;;;;;;;9.64;28.05;100797.31;5033214;28;20132;-64
2023/11/18 07:13:34;;;;;;;16.83;7.22;;;;;;;9.35;28.30;100791.91;5034254;28;20036;-68
2023/11/18 07:16:03;;;;;;;15.02;6.70;;;;;;;9.68;27.36;100768.56;5043669;28;20110;-67
2023/11/18 07:18:32;;;;;;;10.93;6.55;;;;;;;8.61;28.42;100789.06;5051525;28;20451;-66
2023/11/18 07:21:03;;;;;;;18.27;5.90;;;;;;;7.54;30.16;100787.69;5036695;28;20025;-65
2023/11/18 07:23:29;;;;;;;17.38;7.22;;;;;;;6.32;31.99;100803.41;5033222;28;20404;-65
2023/11/18 07:25:56;;;;;;;16.02;7.18;;;;;;;5.08;33.58;100806.19;5034150;28;20456;-67
2023/11/18 07:28:22;;;;;;;16.88;7.68;;;;;;;3.67;35.50;100793.13;5034341;28;20037;-65
2023/11/18 07:30:47;;;;;;;23.80;7.60;;;;;;;2.61;37.76;100796.66;5033257;28;20029;-66
2023/11/18 07:33:18;;;;;;;12.85;6.88;;;;;;;1.80;39.74;100804.34;5033801;28;20423;-65
2023/11/18 07:35:46;;;;;;;18.83;6.90;;;;;;;1.11;40.94;100814.97;5033438;28;20026;-64
2023/11/18 07:38:12;;;;;;;13.68;6.65;;;;;;;0.63;41.94;100813.50;5033832;28;20026;-65
2023/11/18 07:40:42;;;;;;;13.73;5.15;;;;;;;0.23;43.01;100804.72;5032689;28;20464;-66
2023/11/18 07:43:08;;;;;;;14.00;5.80;;;;;;;-0.09;43.12;100814.19;5034548;28;20462;-65
2023/11/18 07:45:39;;;;;;;16.30;6.88;;;;;;;-0.43;43.95;100810.44;5032610;28;20116;-67
2023/11/18 07:48:11;;;;;;;15.48;6.60;;;;;;;-0.56;44.49;100820.31;5032647;28;20471;-65
2023/11/18 07:50:44;;;;;;;15.95;6.32;;;;;;;-0.72;45.17;100814.50;5033830;28;20033;-66
2023/11/18 07:53:10;;;;;;;19.83;6.85;;;;;;;-0.82;45.20;100815.56;5032485;28;20037;-65
2023/11/18 07:55:39;;;;;;;15.57;6.63;;;;;;;-1.00;45.74;100809.72;5040847;28;20043;-65
2023/11/18 07:58:10;;;;;;;14.60;6.00;;;;;;;-1.45;45.73;100761.38;5051450;28;20044;-63
2023/11/18 08:00:40;;;;;;;18.17;6.07;;;;;;;-1.53;46.37;100770.25;5052983;28;20086;-63
2023/11/18 08:03:11;;;;;;;12.85;4.80;;;;;;;-1.61;47.09;100783.50;5053208;28;20024;-64
2023/11/18 08:05:45;;;;;;;9.23;3.75;;;;;;;-1.41;46.57;100820.00;5053115;28;20029;-64
2023/11/18 08:08:12;;;;;;;5.00;2.53;;;;;;;-1.41;46.45;100833.13;5052317;28;20037;-65
2023/11/18 08:10:38;;;;;;;7.68;2.50;;;;;;;-1.57;46.77;100829.81;5053093;28;20025;-65
2023/11/18 08:13:08;;;;;;;4.30;2.10;;;;;;;-1.61;46.82;100829.03;5042243;28;20057;-63
2023/11/18 08:15:37;;;;;;;5.65;2.90;;;;;;;-1.74;47.62;100827.44;5031960;28;20088;-66
2023/11/18 08:18:03;;;;;;;6.00;2.67;;;;;;;-1.67;47.56;100825.59;5033104;28;20021;-65
2023/11/18 08:20:30;;;;;;;8.38;2.78;;;;;;;-1.72;47.46;100830.91;5032981;28;20052;-65
2023/11/18 08:22:56;;;;;;;8.45;3.45;;;;;;;-1.74;47.59;100822.19;5031971;28;20046;-66
2023/11/18 08:25:22;;;;;;;9.45;4.15;;;;;;;-1.74;47.75;100822.19;5032970;28;20045;-66
2023/11/18 08:27:48;;;;;;;7.30;3.58;;;;;;;-1.78;47.93;100810.00;5040298;28;20036;-64
2023/11/18 08:30:14;;;;;;;12.15;4.47;;;;;;;-1.69;47.99;100830.00;5052822;28;20037;-64
2023/11/18 08:32:43;;;;;;;8.05;3.15;;;;;;;-1.74;47.67;100795.94;5050915;28;20183;-64
2023/11/18 08:35:10;;;;;;;5.13;2.00;;;;;;;-1.45;47.21;100820.91;5050845;28;20033;-65
2023/11/18 08:37:39;;;;;;;6.90;3.25;;;;;;;-1.43;46.99;100815.63;5050681;28;20098;-64
2023/11/18 08:40:14;;;;;;;9.13;2.58;;;;;;;-1.49;46.57;100822.72;5020983;28;20048;-65
2023/11/18 08:42:49;;;;;;;8.55;2.72;;;;;;;-1.49;46.89;100812.22;5031619;28;20025;-64
2023/11/18 08:45:34;;;;;;;7.47;3.13;;;;;;;-1.45;46.51;100797.25;5032473;28;20445;-65
2023/11/18 08:48:01;;;;;;;7.97;2.70;;;;;;;-1.62;47.19;100795.78;5032471;28;20025;-66
2023/11/18 08:50:28;;;;;;;5.55;2.90;;;;;;;-1.73;47.59;100802.91;4998926;28;20440;-67
2023/11/18 08:52:58;;;;;;;6.75;3.17;;;;;;;-1.81;47.66;100804.78;5033908;28;20033;-65
2023/11/18 08:55:39;;;;;;;9.10;3.78;;;;;;;-1.80;47.59;100803.91;5032061;28;20095;-64
2023/11/18 08:58:18;;;;;;;6.75;3.25;;;;;;;-2.00;48.29;100786.66;5031125;28;20030;-64
2023/11/18 09:00:52;;;;;;;8.85;3.15;;;;;;;-1.97;48.07;100812.84;5031780;28;20033;-64
2023/11/18 09:03:27;;;;;;;8.68;3.30;;;;;;;-2.11;48.42;100799.06;5033651;28;20049;-64
2023/11/18 09:05:58;;;;;;;8.00;3.90;;;;;;;-2.10;48.19;100813.91;5032829;28;20043;-66
2023/11/18 09:08:45;;;;;;;9.55;3.90;;;;;;;-2.09;47.92;100824.38;5032727;28;20033;-65
2023/11/18 09:11:16;;;;;;;12.38;3.38;;;;;;;-1.91;46.99;100793.53;5032142;28;20041;-64
2023/11/18 09:13:44;;;;;;;6.47;3.30;;;;;;;-1.91;45.83;100791.81;5022822;28;20033;-64
2023/11/18 09:16:11;;;;;;;7.95;3.47;;;;;;;-2.09;47.22;100806.00;5032542;28;20036;-65
2023/11/18 09:18:43;;;;;;;7.68;3.78;;;;;;;-2.02;46.39;100806.81;5032674;28;20043;-65
2023/11/18 09:21:14;;;;;;;10.82;4.20;;;;;;;-2.10;46.72;100792.94;5031543;28;20057;-65
2023/11/18 09:23:41;;;;;;;11.13;4.13;;;;;;;-1.99;46.98;100805.91;5047927;28;20037;-64
2023/11/18 09:26:07;;;;;;;10.65;5.03;;;;;;;-2.06;47.37;100805.97;5033372;28;20073;-66
2023/11/18 09:28:37;;;;;;;9.70;4.05;;;;;;;-1.89;46.20;100797.03;5031585;28;20112;-66
2023/11/18 09:31:04;;;;;;;9.15;3.90;;;;;;;-2.04;46.43;100806.84;5031923;28;20368;-65
2023/11/18 09:33:35;;;;;;;13.73;4.20;;;;;;;-2.13;46.95;100803.47;5032044;28;20030;-64
2023/11/18 09:36:02;;;;;;;8.23;3.83;;;;;;;-2.16;46.44;100814.84;5032344;28;20510;-66
2023/11/18 09:38:30;;;;;;;9.10;3.83;;;;;;;-2.24;46.88;100800.97;5032316;28;20099;-65
2023/11/18 09:41:02;;;;;;;13.88;3.28;;;;;;;-2.09;46.35;100807.78;5032399;28;20083;-64
2023/11/18 09:43:32;;;;;;;8.35;4.10;;;;;;;-2.38;46.26;100767.03;5032519;28;20098;-67
2023/11/18 09:46:12;;;;;;;12.18;4.45;;;;;;;-2.09;46.74;100811.25;5032657;28;20116;-66
2023/11/18 09:48:47;;;;;;;8.55;3.75;;;;;;;-2.28;46.69;100776.53;5018639;28;20026;-68
2023/11/18 09:51:20;;;;;;;8.43;3.65;;;;;;;-2.02;46.64;100802.44;5032149;28;20038;-67
2023/11/18 09:53:50;;;;;;;8.98;3.50;;;;;;;-2.05;46.69;100798.97;5033141;28;20038;-65
2023/11/18 09:56:38;;;;;;;8.02;3.10;;;;;;;-2.04;47.08;100785.84;5032618;28;20048;-64
2023/11/18 09:59:15;;;;;;;7.50;3.85;;;;;;;-2.02;47.04;100794.56;5039269;28;20021;-65
2023/11/18 10:01:44;;;;;;;7.93;3.90;;;;;;;-1.98;47.02;100800.63;5049307;28;20040;-66
2023/11/18 10:04:12;;;;;;;11.13;3.88;;;;;;;-2.28;47.19;100750.28;5052037;28;20025;-64
2023/11/18 10:06:40;;;;;;;7.97;3.60;;;;;;;-2.03;46.75;100799.81;5051803;28;20032;-66
2023/11/18 10:09:15;;;;;;;6.78;3.35;;;;;;;-2.09;46.86;100794.66;5053984;28;20471;-65
2023/11/18 10:11:47;;;;;;;11.32;3.70;;;;;;;-2.12;47.79;100798.19;5055260;28;20025;-64
2023/11/18 10:14:16;;;;;;;9.40;3.17;;;;;;;-2.21;47.77;100803.56;5053764;28;20095;-66
2023/11/18 10:16:46;;;;;;;9.77;3.30;;;;;;;-2.57;47.19;100753.25;5055261;28;20040;-65
2023/11/18 10:19:14;;;;;;;9.98;3.80;;;;;;;-2.36;48.38;100796.75;5044967;28;20029;-67
2023/11/18 10:21:40;;;;;;;6.25;3.58;;;;;;;-2.41;48.42;100782.78;5034198;28;20041;-63
2023/11/18 10:24:14;;;;;;;11.57;3.53;;;;;;;-2.43;48.50;100784.56;5035238;28;20037;-67
2023/11/18 10:26:42;;;;;;;6.72;3.88;;;;;;;-2.47;48.46;100787.22;5035276;28;20049;-65
2023/11/18 10:29:09;;;;;;;12.90;3.70;;;;;;;-2.49;48.48;100791.63;5035105;28;20430;-66
2023/11/18 10:31:37;;;;;;;10.80;3.58;;;;;;;-2.57;48.42;100775.09;5034083;28;20025;-65
2023/11/18 10:34:04;;;;;;;10.48;3.90;;;;;;;-2.54;48.76;100785.56;5017976;28;20026;-68
2023/11/18 10:36:33;;;;;;;8.80;3.88;;;;;;;-2.59;48.99;100784.75;5034316;28;20099;-64
2023/11/18 10:39:01;;;;;;;9.90;3.97;;;;;;;-2.65;49.08;100776.94;5035019;28;20037;-65
2023/11/18 10:41:26;;;;;;;11.13;3.90;;;;;;;-2.64;49.24;100781.31;5034784;28;20052;-65
2023/11/18 10:44:07;;;;;;;10.07;4.18;;;;;;;-2.65;49.43;100774.34;5034847;28;20022;-64
2023/11/18 10:46:32;;;;;;;14.27;4.60;;;;;;;-2.81;49.11;100743.03;5035207;28;20035;-65
2023/11/18 10:48:58;;;;;;;14.38;4.25;;;;;;;-2.49;49.12;100783.75;5033947;28;20121;-65
2023/11/18 10:51:26;;;;;;;10.57;4.45;;;;;;;-2.60;48.33;100756.78;5033716;28;20067;-63
2023/11/18 10:53:53;;;;;;;12.27;3.78;;;;;;;-2.34;48.60;100789.72;5035445;28;20059;-65
2023/11/18 10:56:26;;;;;;;10.90;4.22;;;;;;;-2.56;48.38;100737.50;5034211;28;20041;-65
2023/11/18 10:58:53;;;;;;;9.30;4.38;;;;;;;-2.30;48.29;100775.66;5034464;28;20065;-64
2023/11/18 11:01:34;;;;;;;11.68;4.47;;;;;;;-2.11;48.34;100788.56;5034605;28;20029;-65
2023/11/18 11:04:04;;;;;;;12.00;5.43;;;;;;;-2.18;48.21;100783.38;5034632;28;20341;-64
2023/11/18 11:06:32;;;;;;;14.10;4.32;;;;;;;-2.20;48.26;100781.69;5034745;28;20037;-65
2023/11/18 11:08:58;;;;;;;14.68;4.43;;;;;;;-2.18;47.64;100785.16;5034404;28;20043;-65
2023/11/18 11:11:27;;;;;;;10.35;4.60;;;;;;;-2.11;48.01;100783.31;5033193;28;20045;-64
2023/11/18 11:13:56;;;;;;;13.23;4.05;;;;;;;-2.04;47.51;100771.84;5034525;28;20037;-65
2023/11/18 11:16:29;;;;;;;10.38;5.03;;;;;;;-2.38;47.88;100733.78;5049780;28;20034;-65
2023/11/18 11:19:00;;;;;;;9.95;4.18;;;;;;;-2.18;47.89;100757.13;5038921;28;20169;-64
2023/11/18 11:21:28;;;;;;;13.57;4.78;;;;;;;-2.03;47.46;100778.84;5053036;28;20033;-66
2023/11/18 11:23:55;;;;;;;10.80;5.07;;;;;;;-1.99;47.44;100775.28;5053063;28;20040;-64
2023/11/18 11:26:43;;;;;;;15.52;5.10;;;;;;;-1.89;47.66;100781.28;5052709;28;20375;-64
2023/11/18 11:29:36;;;;;;;12.23;4.80;;;;;;;-1.84;46.96;100778.59;5047470;28;20044;-65